Terminal Aerodrome Forecast
Issued by NWS Duluth, MN

Home | Current Version | Previous Version | Text Only | Print | Product List | Glossary On
Versions: 1 2 3 4 5 6 7 8 9 10 11 12 13 14 15 16 17 18 19 20 21 22 23 24 25 26 27 28 29 30 31 32 33 34 35
000
FTUS43 KDLH 160046
TAFINL

TAF
KINL 160045Z 1601/1624 08004KT P6SM SCT025 BKN035
      TEMPO 1609/1613 BKN025
     FM161300 10006KT P6SM OVC021
     FM161500 11006KT 3SM -SN OVC015
     FM162200 14005KT P6SM BKN012=

USA.gov is the U.S. government's official web portal to all federal, state and local government web resources and services.